x

Bw Pioneer Buoy - Walker Ridge 249 (42360) Wave Buoy

7:00pm - Sun 3rd May 2015 All times are UTC.

  • Sig Wave height 1.6ft
  • Peak Period 5s
  • Wind
    9mph, 13mph gusts
  • Sea Temp 82°f
  • Sea Pressure 1018.6mb

More Historic Weather Station data

Upgrade to MSW Pro to gain access to the past 30 days of data for over 8000 Wavebouys and Weather Stations around the globe.

Join Pro

Comparision Forecast

View Surf forecast
   
Sun 05/03 7:00pm 1.6ft 5s 9 13 mph 1018.6mb 82f -
6:00pm 1.6ft 5s 9 13 mph 1019.1mb 82f -
5:00pm 1.6ft 5s 9 13 mph 1019.4mb 82f -
4:00pm 1.6ft 5s 11 16 mph 1019.3mb 81f -
3:00pm 1.6ft 4s 11 18 mph 1019mb 81f -
2:00pm 1.6ft 5s 11 18 mph 1018.5mb 81f -
1:00pm 2ft 5s 13 20 mph 1018mb 81f -
12:00pm 2ft 5s 11 16 mph 1017.5mb 81f -
11:00am 2ft 5s 13 18 mph 1017mb 81f -
10:00am 2ft 4s 13 18 mph 1016.8mb 81f -
9:00am 1.6ft 4s 13 18 mph 1016.8mb 81f -
8:00am 1.6ft 5s 13 18 mph 1016.8mb 81f -
7:00am 1.6ft 5s 11 16 mph 1017.2mb 81f -
6:00am 1.6ft 5s 7 11 mph 1017.6mb 81f -
5:00am 1.6ft 4s 7 11 mph 1018mb 81f -
4:00am 1.6ft 5s 9 11 mph 1018mb 81f -
3:00am 1.6ft 5s 9 13 mph 1018mb - -
2:00am 1.6ft 4s 11 18 mph 1017.5mb 82f -
1:00am 1.6ft 4s 11 16 mph 1016.9mb 82f -
12:00am 1.6ft 4s 11 18 mph 1016.5mb 82f -
Sat 05/02 11:00pm 1.6ft 4s 11 13 mph 1016.5mb 82f -
10:00pm 1.6ft 4s 9 13 mph 1016.6mb 82f -
9:00pm 1.6ft 4s 11 16 mph 1017.1mb 82f -
8:00pm 1.6ft 4s 11 16 mph 1017.6mb 82f -
7:00pm 1.6ft 4s 11 16 mph 1018mb 82f -
6:00pm 1.6ft 4s 11 16 mph 1018.7mb 82f -
5:00pm 1.6ft 4s 9 13 mph 1019.2mb 82f -
4:00pm 1.6ft 4s 11 16 mph 1019.2mb 82f -
3:00pm 1.6ft 4s 9 16 mph 1019.1mb 82f -
2:00pm 1.6ft 4s 11 13 mph 1018.6mb 82f -
1:00pm 1.6ft 5s 11 13 mph 1018.3mb 82f -
12:00pm 1.6ft 4s 11 18 mph 1017.6mb 82f -
11:00am 1.6ft 4s 13 20 mph 1017.2mb 82f -
10:00am 1.6ft 4s 11 16 mph 1016.9mb 82f -
9:00am 1.6ft 5s 11 16 mph 1017mb 82f -
8:00am 1.6ft 5s 13 18 mph 1017mb 82f -
7:00am 2ft 5s 11 18 mph 1017.5mb 82f -
6:00am 2.5ft 5s 11 18 mph 1018mb 82f -
5:00am 2ft 5s 11 16 mph 1018mb 82f -
4:00am 2ft 5s 11 16 mph 1018mb 82f -
3:00am 2ft 5s 11 13 mph 1017.6mb 82f -
2:00am 1.6ft 5s 9 16 mph 1017mb 82f -
1:00am 1.6ft 4s 9 16 mph 1016.1mb 82f 75f
12:00am 1.6ft 4s 13 18 mph 1015.6mb 82f -
Fri 05/01 11:00pm 1.6ft 6s 11 18 mph 1015.4mb 82f -
10:00pm 1.6ft 5s 11 18 mph 1015.5mb 82f -
9:00pm 1.6ft 6s 13 18 mph 1015.9mb 82f -
8:00pm 1.6ft 6s 9 13 mph 1016.4mb 82f -
7:00pm 1.6ft 6s 9 16 mph 1017mb 82f -
6:00pm 1.6ft 6s 9 13 mph 1017.7mb 82f -
5:00pm 1.6ft 6s 9 13 mph 1018.1mb 82f -
4:00pm 1.6ft 6s 7 11 mph 1018.1mb 82f -
3:00pm 1.6ft 6s 7 11 mph 1017.5mb 82f -
2:00pm 2ft 6s 7 11 mph 1017mb 82f -
1:00pm 2ft 5s 4 9 mph 1016.6mb 82f -
12:00pm 2.5ft 6s 9 13 mph 1015.8mb 82f 75f
11:00am 2.5ft 6s 9 16 mph 1014.9mb 82f 75f
10:00am 2.5ft 6s 9 16 mph 1014.9mb 82f 75f
9:00am 2.5ft 6s 9 16 mph 1014.7mb 82f 75f
8:00am 2.5ft 6s 11 16 mph 1014.9mb 82f 75f
7:00am 2.5ft 6s 11 18 mph 1014.9mb 82f 74f
6:00am 3ft 5s 11 18 mph 1015.5mb 82f 74f
5:00am 3ft 6s 13 20 mph 1015.9mb 82f 74f
4:00am 3ft 5s 13 20 mph 1015.6mb 82f 75f
3:00am 3ft 6s 11 18 mph 1015.3mb 82f 75f
2:00am 3.5ft 6s 13 20 mph 1014.8mb 82f 75f
1:00am 3.5ft 5s 13 18 mph 1014.2mb 82f 74f
12:00am 3ft 6s 13 18 mph 1013.7mb 82f -
Thu 04/30 10:00pm 3.5ft 6s 13 20 mph 1013.3mb 82f -
9:00pm 3.5ft 6s 11 16 mph 1013.5mb 82f -
8:00pm 3.5ft 6s 11 22 mph 1014.1mb 82f -
7:00pm 4ft 6s 13 20 mph 1014.3mb 82f -
6:00pm 4.5ft 6s 13 18 mph 1014.8mb 82f -
5:00pm 4ft 5s 16 22 mph 1014.8mb 82f -
4:00pm 4.5ft 6s 16 20 mph 1014.8mb 82f -
3:00pm 4.5ft 6s 18 25 mph 1014.4mb 82f 69f
2:00pm 4ft 6s 16 20 mph 1013.8mb 82f 71f
1:00pm 4.5ft 7s 16 22 mph 1013.1mb 82f 73f
12:00pm 4.5ft 6s 20 27 mph 1012.4mb 82f 73f
11:00am 4.5ft 7s 18 25 mph 1012.1mb 82f 73f
10:00am 4.5ft 6s 18 25 mph 1011.9mb 82f 73f
9:00am 4.5ft 6s 13 20 mph 1011.5mb 82f 73f
8:00am 4.5ft 7s 13 20 mph 1011.7mb 82f 72f
7:00am 5ft 7s 16 25 mph 1011.9mb 82f 72f
6:00am 5.5ft 7s 16 22 mph 1012.6mb 82f 71f
5:00am 5.5ft 7s 16 22 mph 1012.8mb 82f 71f
4:00am 6ft 7s 20 27 mph 1013.1mb 82f 71f
3:00am 6ft 6s 22 29 mph 1012.8mb 82f 71f
2:00am 6.5ft 6s 20 29 mph 1012.5mb 82f 71f
1:00am 6ft 7s 25 34 mph 1011.6mb 82f 71f
12:00am 6.5ft 8s 25 36 mph 1011mb 82f 71f
Wed 04/29 11:00pm 7ft 8s 25 36 mph 1010.6mb 82f 71f
10:00pm 7.5ft 8s 25 34 mph 1010.6mb 82f 71f
9:00pm 6.5ft 8s 25 34 mph 1010.6mb 82f -